Glasgow, United Kingdom
Current Conditions -  °F | °C
As of 9:50 AM on Thursday 23 Oct 2014 (Local Time) from EGPF Reporting Station
Light Rain Light Rain  
Wind Chill: 12°   Ceiling: 1800
Heat Index: 12°   Visibility: 4mi
Dew Point: 11°   Wind: 20mph
Humidity: 94%   Direction: 210°SSW
Pressure: 29.8"   Gusts: NA
Location:  55.87°N, 4.26°W
Report Text: EGPF 230850Z AUTO 21017KT 6000 -RA FEW012 BKN018 OVC043 12/11 Q1009
Loading
Personal Weather Stations






























Interactive Weather Map New forecast layout! Learn more

10-Day Weather Forecast

Advertisements
Track Severe Weather on mobile